Time;durP1;ratioP1;P1;durP2;ratioP2;P2;SDS_P1;SDS_P2;PMS_P1;PMS_P2;Temp;Humidity;BMP_temperature;BMP_pressure;BME280_temperature;BME280_humidity;BME280_pressure;Samples;Min_cycle;Max_cycle;Signal;HPM_P1;HPM_P2
2022/09/03 00:00:54;;;;;;;;;;;16.20;98.00;;;;;;5064868;28;19923;-74
2022/09/03 00:03:35;;;;;;;;;;;16.20;98.10;;;;;;5064616;28;19913;-74
2022/09/03 00:06:41;;;;;;;;;;;16.10;98.50;;;;;;5064374;28;20026;-74
2022/09/03 00:09:16;;;;;;;;;;;16.10;98.60;;;;;;5064702;28;20227;-74
2022/09/03 00:11:54;;;;;;;;;;;16.10;98.50;;;;;;5064754;28;20108;-74
2022/09/03 00:14:25;;;;;;;;;;;16.10;98.90;;;;;;5064528;28;19908;-74
2022/09/03 00:16:54;;;;;;;;;;;16.00;99.10;;;;;;5065452;28;19936;-73
2022/09/03 00:19:25;;;;;;;;;;;16.00;99.50;;;;;;5069238;28;20261;-74
2022/09/03 00:21:54;;;;;;;;;;;16.00;99.60;;;;;;5053103;28;19909;-74
2022/09/03 00:24:20;;;;;;;;;;;15.90;99.90;;;;;;5052691;28;19909;-74
2022/09/03 00:26:50;;;;;;;;;;;15.90;99.90;;;;;;5064571;28;19947;-74
2022/09/03 00:29:38;;;;;;;;;;;15.90;99.90;;;;;;5048465;28;19954;-74
2022/09/03 00:32:09;;;;;;;;;;;15.80;99.90;;;;;;5097950;28;19931;-74
2022/09/03 00:34:39;;;;;;;;;;;15.80;99.90;;;;;;5064134;28;19932;-74
2022/09/03 00:37:06;;;;;;;;;;;15.70;99.90;;;;;;5064020;28;19909;-74
2022/09/03 00:39:32;;;;;;;;;;;15.70;99.90;;;;;;5065254;28;20204;-74
2022/09/03 00:42:23;;;;;;;;;;;15.70;99.90;;;;;;5064856;28;19924;-74
2022/09/03 00:44:55;;;;;;;;;;;15.70;99.90;;;;;;5064455;28;19913;-74
2022/09/03 00:47:39;;;;;;;;;;;15.60;99.90;;;;;;5065079;28;19944;-74
2022/09/03 00:50:16;;;;;;;;;;;15.60;99.90;;;;;;5063939;28;19951;-74
2022/09/03 00:53:06;;;;;;;;;;;15.50;99.90;;;;;;5047577;28;20002;-74
2022/09/03 00:55:57;;;;;;;;;;;15.50;99.90;;;;;;5064941;28;19917;-74
2022/09/03 00:58:42;;;;;;;;;;;15.50;99.90;;;;;;5064607;28;20291;-74
2022/09/03 01:01:22;;;;;;;;;;;15.40;99.90;;;;;;5063697;28;19920;-74
2022/09/03 01:04:05;;;;;;;;;;;15.40;99.90;;;;;;5063728;28;20143;-74
2022/09/03 01:07:03;;;;;;;;;;;15.40;99.90;;;;;;5064481;28;20183;-74
2022/09/03 01:09:29;;;;;;;;;;;15.40;99.90;;;;;;5062882;28;19917;-74
2022/09/03 01:12:19;;;;;;;;;;;15.40;99.90;;;;;;5064703;28;19915;-74
2022/09/03 01:14:51;;;;;;;;;;;15.30;99.90;;;;;;5064376;28;19947;-74
2022/09/03 01:17:41;;;;;;;;;;;15.30;99.90;;;;;;5063505;28;19919;-74
2022/09/03 01:20:10;;;;;;;;;;;15.30;99.90;;;;;;5063567;28;19940;-74
2022/09/03 01:23:06;;;;;;;;;;;15.30;99.90;;;;;;5064577;28;19915;-74
2022/09/03 01:25:47;;;;;;;;;;;15.30;99.90;;;;;;5064905;28;20250;-74
2022/09/03 01:28:31;;;;;;;;;;;15.20;99.90;;;;;;5064451;28;19917;-73
2022/09/03 01:31:25;;;;;;;;;;;15.20;99.90;;;;;;5063242;28;19979;-74
2022/09/03 01:34:29;;;;;;;;;;;15.20;99.90;;;;;;5063539;28;19909;-73
2022/09/03 01:37:08;;;;;;;;;;;15.20;99.90;;;;;;5076507;23;19982;-71
2022/09/03 01:40:01;;;;;;;;;;;15.20;99.90;;;;;;5053567;28;19959;-71
2022/09/03 01:42:45;;;;;;;;;;;15.10;99.90;;;;;;5062589;28;19985;-71
2022/09/03 01:45:32;;;;;;;;;;;15.10;99.90;;;;;;5063704;28;19948;-72
2022/09/03 01:48:11;;;;;;;;;;;15.20;99.90;;;;;;5073190;28;19931;-71
2022/09/03 01:50:56;;;;;;;;;;;15.10;99.90;;;;;;5067213;28;19915;-71
2022/09/03 01:53:41;;;;;;;;;;;15.10;99.90;;;;;;5066407;28;20203;-72
2022/09/03 01:56:46;;;;;;;;;;;15.00;99.90;;;;;;5083719;28;19908;-71
2022/09/03 01:59:22;;;;;;;;;;;15.00;99.90;;;;;;5082751;28;19908;-71
2022/09/03 02:02:05;;;;;;;;;;;15.00;99.90;;;;;;5082423;28;19916;-71
2022/09/03 02:04:30;;;;;;;;;;;15.00;99.90;;;;;;5083452;28;19992;-71
2022/09/03 02:06:57;;;;;;;;;;;15.00;99.90;;;;;;5083371;28;19912;-71
2022/09/03 02:09:23;;;;;;;;;;;15.00;99.90;;;;;;5045239;28;19954;-71
2022/09/03 02:11:51;;;;;;;;;;;15.00;99.90;;;;;;5062293;28;19909;-71
2022/09/03 02:14:17;;;;;;;;;;;14.90;99.90;;;;;;5062598;28;20163;-71
2022/09/03 02:16:43;;;;;;;;;;;14.90;99.90;;;;;;5063809;28;19948;-71
2022/09/03 02:19:11;;;;;;;;;;;14.90;99.90;;;;;;5064947;28;19916;-71
2022/09/03 02:21:39;;;;;;;;;;;14.90;99.90;;;;;;5063244;28;19916;-71
2022/09/03 02:24:05;;;;;;;;;;;14.80;99.90;;;;;;5046525;28;20085;-71
2022/09/03 02:26:30;;;;;;;;;;;14.80;99.90;;;;;;5080761;28;19909;-71
2022/09/03 02:28:56;;;;;;;;;;;14.80;99.90;;;;;;5062752;28;20208;-71
2022/09/03 02:31:22;;;;;;;;;;;14.80;99.90;;;;;;5064586;28;19912;-71
2022/09/03 02:33:48;;;;;;;;;;;14.80;99.90;;;;;;5062557;28;20216;-71
2022/09/03 02:36:15;;;;;;;;;;;14.80;99.90;;;;;;5061842;28;19912;-71
2022/09/03 02:38:42;;;;;;;;;;;14.70;99.90;;;;;;5061441;28;20056;-71
2022/09/03 02:41:07;;;;;;;;;;;14.70;99.90;;;;;;5062358;28;19947;-72
2022/09/03 02:43:40;;;;;;;;;;;14.70;99.90;;;;;;5062465;28;20196;-71
2022/09/03 02:46:07;;;;;;;;;;;14.70;99.90;;;;;;5061445;28;19916;-71
2022/09/03 02:48:33;;;;;;;;;;;14.70;99.90;;;;;;5044952;28;20182;-71
2022/09/03 02:50:59;;;;;;;;;;;14.60;99.90;;;;;;5061474;28;19984;-71
2022/09/03 02:53:27;;;;;;;;;;;14.60;99.90;;;;;;5061469;28;19909;-71
2022/09/03 02:56:00;;;;;;;;;;;14.50;99.90;;;;;;5062507;28;19917;-71
2022/09/03 02:58:26;;;;;;;;;;;14.60;99.90;;;;;;5061128;28;19909;-71
2022/09/03 03:00:52;;;;;;;;;;;14.50;99.90;;;;;;5062416;28;19976;-71
2022/09/03 03:03:17;;;;;;;;;;;14.50;99.90;;;;;;5061115;28;19923;-71
2022/09/03 03:05:51;;;;;;;;;;;14.40;99.90;;;;;;5044505;28;19912;-71
2022/09/03 03:08:20;;;;;;;;;;;14.40;99.90;;;;;;5060909;28;19950;-71
2022/09/03 03:10:46;;;;;;;;;;;14.50;99.90;;;;;;5061232;28;20280;-71
2022/09/03 03:13:12;;;;;;;;;;;14.40;99.90;;;;;;5044469;28;19972;-71
2022/09/03 03:15:38;;;;;;;;;;;14.40;99.90;;;;;;5062374;28;20158;-71
2022/09/03 03:18:03;;;;;;;;;;;14.40;99.90;;;;;;5044593;28;19909;-71
2022/09/03 03:20:29;;;;;;;;;;;14.40;99.90;;;;;;5061218;28;19908;-72
2022/09/03 03:22:55;;;;;;;;;;;14.40;99.90;;;;;;5061299;28;19909;-71
2022/09/03 03:25:20;;;;;;;;;;;14.40;99.90;;;;;;5046278;28;20242;-72
2022/09/03 03:27:46;;;;;;;;;;;14.40;99.90;;;;;;5046204;28;20151;-71
2022/09/03 03:30:12;;;;;;;;;;;14.50;99.90;;;;;;5046511;28;19909;-71
2022/09/03 03:32:38;;;;;;;;;;;14.40;99.90;;;;;;5044970;28;20231;-71
2022/09/03 03:35:04;;;;;;;;;;;14.40;99.90;;;;;;5044857;28;19924;-71
2022/09/03 03:37:30;;;;;;;;;;;14.30;99.90;;;;;;5045726;28;19920;-71
2022/09/03 03:39:55;;;;;;;;;;;14.40;99.90;;;;;;5044531;28;20221;-71
2022/09/03 03:42:21;;;;;;;;;;;14.30;99.90;;;;;;5046035;28;20032;-71
2022/09/03 03:44:47;;;;;;;;;;;14.30;99.90;;;;;;5045744;28;20104;-71
2022/09/03 03:47:12;;;;;;;;;;;14.20;99.90;;;;;;5046009;28;19921;-71
2022/09/03 03:49:38;;;;;;;;;;;14.20;99.90;;;;;;5045946;28;19955;-71
2022/09/03 03:52:04;;;;;;;;;;;14.20;99.90;;;;;;5051339;28;20142;-71
2022/09/03 03:54:29;;;;;;;;;;;14.10;99.90;;;;;;5065299;28;19908;-71
2022/09/03 03:56:55;;;;;;;;;;;14.10;99.90;;;;;;5064612;28;19909;-71
2022/09/03 03:59:21;;;;;;;;;;;14.10;99.90;;;;;;5064590;28;19909;-71
2022/09/03 04:01:49;;;;;;;;;;;14.00;99.90;;;;;;5064631;28;20200;-71
2022/09/03 04:04:15;;;;;;;;;;;14.00;99.90;;;;;;5065421;28;19909;-71
2022/09/03 04:06:40;;;;;;;;;;;14.00;99.90;;;;;;5064410;28;20433;-71
2022/09/03 04:09:06;;;;;;;;;;;14.00;99.90;;;;;;5065245;28;19978;-71
2022/09/03 04:11:32;;;;;;;;;;;13.90;99.90;;;;;;5064360;28;19909;-71
2022/09/03 04:13:57;;;;;;;;;;;13.90;99.90;;;;;;5065205;28;20285;-71
2022/09/03 04:16:26;;;;;;;;;;;13.90;99.90;;;;;;5065402;28;19908;-72
2022/09/03 04:18:53;;;;;;;;;;;13.80;99.90;;;;;;5064193;28;19987;-72
2022/09/03 04:21:28;;;;;;;;;;;13.90;99.90;;;;;;5064212;28;19908;-71
2022/09/03 04:23:54;;;;;;;;;;;13.80;99.90;;;;;;5063884;28;20119;-71
2022/09/03 04:26:21;;;;;;;;;;;13.80;99.90;;;;;;5047464;28;20235;-71
2022/09/03 04:28:47;;;;;;;;;;;13.80;99.90;;;;;;5064065;28;19919;-71
2022/09/03 04:31:14;;;;;;;;;;;13.80;99.90;;;;;;5065199;28;19920;-71
2022/09/03 04:33:40;;;;;;;;;;;13.80;99.90;;;;;;5064195;28;19963;-71
2022/09/03 04:36:14;;;;;;;;;;;13.80;99.90;;;;;;5047111;28;19908;-71
2022/09/03 04:38:40;;;;;;;;;;;13.80;99.90;;;;;;5064799;28;19912;-71
2022/09/03 04:41:10;;;;;;;;;;;13.80;99.90;;;;;;5064535;28;19909;-71
2022/09/03 04:43:36;;;;;;;;;;;13.70;99.90;;;;;;5064740;28;20093;-71
2022/09/03 04:46:03;;;;;;;;;;;13.80;99.90;;;;;;5047083;28;19916;-71
2022/09/03 04:48:29;;;;;;;;;;;13.70;99.90;;;;;;5047205;28;19913;-71
2022/09/03 04:51:02;;;;;;;;;;;13.80;99.90;;;;;;5064756;28;19947;-71
2022/09/03 04:53:27;;;;;;;;;;;13.80;99.90;;;;;;5063587;28;19909;-71
2022/09/03 04:55:53;;;;;;;;;;;13.80;99.90;;;;;;5064579;28;19944;-71
2022/09/03 04:58:18;;;;;;;;;;;13.80;99.90;;;;;;5064452;28;19955;-71
2022/09/03 05:00:44;;;;;;;;;;;13.80;99.90;;;;;;5064548;28;20011;-71
2022/09/03 05:03:10;;;;;;;;;;;13.80;99.90;;;;;;5064314;28;19908;-71
2022/09/03 05:05:35;;;;;;;;;;;13.80;99.90;;;;;;5064418;28;20189;-71
2022/09/03 05:08:02;;;;;;;;;;;13.80;99.90;;;;;;5064177;28;19917;-71
2022/09/03 05:10:27;;;;;;;;;;;13.80;99.90;;;;;;5063366;28;19920;-71
2022/09/03 05:12:58;;;;;;;;;;;13.80;99.90;;;;;;5064130;28;20136;-71
2022/09/03 05:15:24;;;;;;;;;;;13.90;99.90;;;;;;5047028;28;20031;-71
2022/09/03 05:17:53;;;;;;;;;;;13.90;99.90;;;;;;5064226;28;19961;-71
2022/09/03 05:20:18;;;;;;;;;;;13.90;99.90;;;;;;5063022;28;19955;-71
2022/09/03 05:22:44;;;;;;;;;;;13.90;99.90;;;;;;5063624;28;19909;-71
2022/09/03 05:25:10;;;;;;;;;;;14.00;99.90;;;;;;5063928;28;19909;-71
2022/09/03 05:27:35;;;;;;;;;;;14.00;99.90;;;;;;5062846;28;19920;-71
2022/09/03 05:30:01;;;;;;;;;;;14.00;99.90;;;;;;5063988;28;19936;-71
2022/09/03 05:32:29;;;;;;;;;;;14.00;99.90;;;;;;5063924;28;19909;-71
2022/09/03 05:34:55;;;;;;;;;;;13.90;99.90;;;;;;5062615;28;20306;-72
2022/09/03 05:37:22;;;;;;;;;;;14.00;99.90;;;;;;5062560;28;19944;-71
2022/09/03 05:39:47;;;;;;;;;;;14.00;99.90;;;;;;5063132;28;19916;-72
2022/09/03 05:42:13;;;;;;;;;;;14.10;99.90;;;;;;5063789;28;19908;-71
2022/09/03 05:44:39;;;;;;;;;;;14.10;99.90;;;;;;5062436;28;19913;-71
2022/09/03 05:47:05;;;;;;;;;;;14.10;99.90;;;;;;5063665;28;20119;-72
2022/09/03 05:49:31;;;;;;;;;;;14.20;99.90;;;;;;5062717;28;19909;-72
2022/09/03 05:51:57;;;;;;;;;;;14.20;99.90;;;;;;5063543;28;19985;-72
2022/09/03 05:54:22;;;;;;;;;;;14.30;99.90;;;;;;5062953;28;19979;-71
2022/09/03 05:56:48;;;;;;;;;;;14.30;99.90;;;;;;5062293;28;19915;-71
2022/09/03 05:59:14;;;;;;;;;;;14.40;99.90;;;;;;5063422;28;19909;-71
2022/09/03 06:01:41;;;;;;;;;;;14.40;99.90;;;;;;5062312;28;19912;-72
2022/09/03 06:04:09;;;;;;;;;;;14.50;99.90;;;;;;5062020;28;19909;-72
2022/09/03 06:06:37;;;;;;;;;;;14.50;99.90;;;;;;5062372;28;20203;-71
2022/09/03 06:09:04;;;;;;;;;;;14.60;99.90;;;;;;5061667;28;19928;-71
2022/09/03 06:11:31;;;;;;;;;;;14.60;99.90;;;;;;5062056;28;19944;-71
2022/09/03 06:14:00;;;;;;;;;;;14.50;99.90;;;;;;5062949;28;20092;-72
2022/09/03 06:16:26;;;;;;;;;;;14.50;99.90;;;;;;5062009;28;19916;-72
2022/09/03 06:18:52;;;;;;;;;;;14.50;99.90;;;;;;5045254;28;20194;-71
2022/09/03 06:21:18;;;;;;;;;;;14.50;99.90;;;;;;5045261;28;19916;-71
2022/09/03 06:23:48;;;;;;;;;;;14.50;99.90;;;;;;5057993;28;19916;-71
2022/09/03 06:26:13;;;;;;;;;;;14.60;99.90;;;;;;5025308;28;19975;-72
2022/09/03 06:28:42;;;;;;;;;;;14.60;99.90;;;;;;5042788;28;19913;-72
2022/09/03 06:31:09;;;;;;;;;;;14.70;99.90;;;;;;5041749;28;19939;-72
2022/09/03 06:33:36;;;;;;;;;;;14.80;99.90;;;;;;5042595;28;19984;-72
2022/09/03 06:36:03;;;;;;;;;;;14.90;99.90;;;;;;5042725;28;20151;-72
2022/09/03 06:38:36;;;;;;;;;;;15.10;99.90;;;;;;5041261;28;20220;-72
2022/09/03 06:41:09;;;;;;;;;;;15.30;99.90;;;;;;5041387;28;19909;-72
2022/09/03 06:43:39;;;;;;;;;;;15.40;99.90;;;;;;5042580;28;19988;-72
2022/09/03 06:46:07;;;;;;;;;;;15.60;99.90;;;;;;5042516;28;19917;-72
2022/09/03 06:48:33;;;;;;;;;;;15.60;99.90;;;;;;5041485;28;19987;-72
2022/09/03 06:51:00;;;;;;;;;;;15.70;99.90;;;;;;5042686;28;19915;-72
2022/09/03 06:53:27;;;;;;;;;;;15.80;99.90;;;;;;5052351;28;20023;-72
2022/09/03 06:55:54;;;;;;;;;;;15.80;99.90;;;;;;5062168;28;20323;-72
2022/09/03 06:58:20;;;;;;;;;;;15.90;99.90;;;;;;5061322;28;19939;-72
2022/09/03 07:00:46;;;;;;;;;;;16.00;99.90;;;;;;5062525;28;19909;-72
2022/09/03 07:03:12;;;;;;;;;;;16.00;99.90;;;;;;5062184;28;19916;-72
2022/09/03 07:05:38;;;;;;;;;;;16.20;99.90;;;;;;5062315;28;19916;-72
2022/09/03 07:08:05;;;;;;;;;;;16.30;99.90;;;;;;5060387;28;20291;-72
2022/09/03 07:10:33;;;;;;;;;;;16.50;99.90;;;;;;5062406;28;19975;-72
2022/09/03 07:12:59;;;;;;;;;;;16.60;99.90;;;;;;5062043;28;19916;-72
2022/09/03 07:15:25;;;;;;;;;;;16.70;99.90;;;;;;5062191;28;19909;-72
2022/09/03 07:17:50;;;;;;;;;;;16.80;99.90;;;;;;5062219;28;19909;-72
2022/09/03 07:20:16;;;;;;;;;;;16.90;99.90;;;;;;5061131;28;20204;-72
2022/09/03 07:22:42;;;;;;;;;;;17.10;99.90;;;;;;5062106;28;19909;-72
2022/09/03 07:25:08;;;;;;;;;;;17.20;99.90;;;;;;5061963;28;20115;-72
2022/09/03 07:27:34;;;;;;;;;;;17.30;99.90;;;;;;5062379;28;19917;-72
2022/09/03 07:29:59;;;;;;;;;;;17.50;99.90;;;;;;5061194;28;19924;-72
2022/09/03 07:32:25;;;;;;;;;;;17.50;99.90;;;;;;5062233;28;19908;-72
2022/09/03 07:34:51;;;;;;;;;;;17.60;99.90;;;;;;5061933;28;19909;-72
2022/09/03 07:37:17;;;;;;;;;;;17.60;99.90;;;;;;5062054;28;19959;-72
2022/09/03 07:39:43;;;;;;;;;;;17.60;99.90;;;;;;5060641;28;19959;-72
2022/09/03 07:42:09;;;;;;;;;;;17.60;99.90;;;;;;5062325;28;19930;-72
2022/09/03 07:44:35;;;;;;;;;;;17.70;99.70;;;;;;5061814;28;20108;-72
2022/09/03 07:47:02;;;;;;;;;;;17.80;99.80;;;;;;5062058;28;19908;-72
2022/09/03 07:49:27;;;;;;;;;;;17.80;99.60;;;;;;5060950;28;19920;-72
2022/09/03 07:51:53;;;;;;;;;;;17.90;99.40;;;;;;5062051;28;19916;-72
2022/09/03 07:54:20;;;;;;;;;;;17.90;98.00;;;;;;5061458;28;19932;-72
2022/09/03 07:56:46;;;;;;;;;;;17.90;98.20;;;;;;5062048;28;19955;-71
2022/09/03 07:59:11;;;;;;;;;;;17.90;98.30;;;;;;5060848;28;19912;-72
2022/09/03 08:01:37;;;;;;;;;;;17.90;98.40;;;;;;5061913;28;19917;-72
2022/09/03 08:04:05;;;;;;;;;;;18.00;97.60;;;;;;5060672;28;20341;-71
2022/09/03 08:06:31;;;;;;;;;;;18.00;97.30;;;;;;5060832;28;19991;-72
2022/09/03 08:08:58;;;;;;;;;;;18.10;97.30;;;;;;5063734;28;19972;-72
2022/09/03 08:11:24;;;;;;;;;;;18.20;96.70;;;;;;5065650;28;19931;-72
2022/09/03 08:13:59;;;;;;;;;;;18.30;96.90;;;;;;5065411;28;19940;-71
2022/09/03 08:16:25;;;;;;;;;;;18.30;96.00;;;;;;5065555;28;20211;-72
2022/09/03 08:18:51;;;;;;;;;;;18.40;95.80;;;;;;5065446;28;19909;-72
2022/09/03 08:21:18;;;;;;;;;;;18.50;96.00;;;;;;5065386;28;19975;-72
2022/09/03 08:23:45;;;;;;;;;;;18.60;96.20;;;;;;5065174;28;20029;-72
2022/09/03 08:26:12;;;;;;;;;;;18.60;95.20;;;;;;5064132;28;19987;-72
2022/09/03 08:28:38;;;;;;;;;;;18.70;94.40;;;;;;5064027;28;19917;-72
2022/09/03 08:31:11;;;;;;;;;;;18.90;94.20;;;;;;5047401;28;19924;-72
2022/09/03 08:33:47;;;;;;;;;;;19.00;94.70;;;;;;5064907;28;19976;-72
2022/09/03 08:36:18;;;;;;;;;;;19.10;94.80;;;;;;5047251;28;19917;-72
2022/09/03 08:38:45;;;;;;;;;;;19.30;93.60;;;;;;5047091;28;19988;-72
2022/09/03 08:41:28;;;;;;;;;;;19.40;92.80;;;;;;5064892;28;20354;-72
2022/09/03 08:44:23;;;;;;;;;;;19.60;93.40;;;;;;5063762;28;19909;-72
2022/09/03 08:46:54;;;;;;;;;;;19.80;93.00;;;;;;5063754;28;20104;-72
2022/09/03 08:49:23;;;;;;;;;;;20.00;93.30;;;;;;5064993;28;20085;-72
2022/09/03 08:51:49;;;;;;;;;;;20.20;91.60;;;;;;5063941;28;19984;-72
2022/09/03 08:54:15;;;;;;;;;;;20.30;90.60;;;;;;5064386;28;19936;-72
2022/09/03 08:56:40;;;;;;;;;;;20.40;90.70;;;;;;5047145;28;19980;-72
2022/09/03 08:59:07;;;;;;;;;;;20.50;90.10;;;;;;5046879;28;19916;-72
2022/09/03 09:01:37;;;;;;;;;;;20.50;88.30;;;;;;5046861;28;19991;-72
2022/09/03 09:04:06;;;;;;;;;;;20.50;89.10;;;;;;5063282;28;19916;-72
2022/09/03 09:06:56;;;;;;;;;;;20.50;90.20;;;;;;5063226;28;19935;-72
2022/09/03 09:09:43;;;;;;;;;;;20.50;91.80;;;;;;5064433;28;19975;-72
2022/09/03 09:12:29;;;;;;;;;;;20.40;90.00;;;;;;5064520;28;19931;-72
2022/09/03 09:15:17;;;;;;;;;;;20.40;90.10;;;;;;5064135;28;19908;-72
2022/09/03 09:18:04;;;;;;;;;;;20.30;90.60;;;;;;5064490;28;20246;-72
2022/09/03 09:20:32;;;;;;;;;;;20.40;91.80;;;;;;5062942;28;19915;-72
2022/09/03 09:23:05;;;;;;;;;;;20.50;91.10;;;;;;5064040;28;19916;-71
2022/09/03 09:25:31;;;;;;;;;;;20.60;91.10;;;;;;5062882;28;19920;-72
2022/09/03 09:28:21;;;;;;;;;;;20.60;91.60;;;;;;5064228;28;19908;-72
2022/09/03 09:30:47;;;;;;;;;;;20.70;90.50;;;;;;5062904;28;19908;-72
2022/09/03 09:33:14;;;;;;;;;;;20.80;90.00;;;;;;5064425;28;20220;-72
2022/09/03 09:35:41;;;;;;;;;;;20.80;89.10;;;;;;5064602;28;19917;-72
2022/09/03 09:38:07;;;;;;;;;;;20.80;89.60;;;;;;5066968;28;20088;-72
2022/09/03 09:40:35;;;;;;;;;;;20.90;90.10;;;;;;5068270;28;19917;-72
2022/09/03 09:43:10;;;;;;;;;;;20.90;90.60;;;;;;5066969;28;19909;-72
2022/09/03 09:45:39;;;;;;;;;;;20.90;89.50;;;;;;5068264;28;19959;-72
2022/09/03 09:48:21;;;;;;;;;;;20.90;88.90;;;;;;5067006;28;20174;-72
2022/09/03 09:50:47;;;;;;;;;;;20.90;89.20;;;;;;5064166;28;19909;-72
2022/09/03 09:53:16;;;;;;;;;;;20.90;88.70;;;;;;5063522;28;19956;-72
2022/09/03 09:55:56;;;;;;;;;;;20.90;90.20;;;;;;5046448;28;19951;-72
2022/09/03 09:58:27;;;;;;;;;;;20.90;90.10;;;;;;5046124;28;20154;-72
2022/09/03 10:01:13;;;;;;;;;;;21.10;90.20;;;;;;5046378;28;20226;-72
2022/09/03 10:03:47;;;;;;;;;;;21.20;90.30;;;;;;5062127;28;19940;-72
2022/09/03 10:06:56;;;;;;;;;;;21.30;87.00;;;;;;5062148;28;19916;-72
2022/09/03 10:09:07;;;;;;;;;;;21.40;88.40;;;;;;5056484;28;19925;-72
2022/09/03 10:11:35;;;;;;;;;;;21.60;85.60;;;;;;5046030;28;20366;-72
2022/09/03 10:14:01;;;;;;;;;;;21.80;83.20;;;;;;5045765;28;20116;-72
2022/09/03 10:16:29;;;;;;;;;;;21.90;82.90;;;;;;5062403;28;19916;-72
2022/09/03 10:19:15;;;;;;;;;;;21.90;81.80;;;;;;5045587;28;20081;-72
2022/09/03 10:21:59;;;;;;;;;;;22.00;81.90;;;;;;5047251;28;19909;-72
2022/09/03 10:24:31;;;;;;;;;;;22.10;82.20;;;;;;5062697;28;20127;-72
2022/09/03 10:26:57;;;;;;;;;;;22.20;81.20;;;;;;5061917;28;19935;-72
2022/09/03 10:29:28;;;;;;;;;;;22.40;81.90;;;;;;5063080;28;19993;-72
2022/09/03 10:32:01;;;;;;;;;;;22.60;80.00;;;;;;5061312;28;20338;-72
2022/09/03 10:34:58;;;;;;;;;;;22.80;78.60;;;;;;5062756;28;19940;-72
2022/09/03 10:37:37;;;;;;;;;;;23.00;76.00;;;;;;5061617;28;20153;-72
2022/09/03 10:40:31;;;;;;;;;;;23.20;75.60;;;;;;5061228;28;19917;-72
2022/09/03 10:43:31;;;;;;;;;;;23.40;75.10;;;;;;5062898;28;19930;-72
2022/09/03 10:46:17;;;;;;;;;;;23.50;76.00;;;;;;5061660;28;19920;-72
2022/09/03 10:49:01;;;;;;;;;;;23.70;74.70;;;;;;5061497;28;19916;-72
2022/09/03 10:51:34;;;;;;;;;;;23.70;73.40;;;;;;5062733;28;19909;-72
2022/09/03 10:54:17;;;;;;;;;;;23.70;72.60;;;;;;5059870;28;19920;-71
2022/09/03 10:56:53;;;;;;;;;;;23.80;73.20;;;;;;5063483;28;19920;-71
2022/09/03 10:59:19;;;;;;;;;;;23.90;73.90;;;;;;5061701;28;19916;-71
2022/09/03 11:01:54;;;;;;;;;;;24.10;73.80;;;;;;5062775;28;19909;-71
2022/09/03 11:04:25;;;;;;;;;;;24.10;71.10;;;;;;5062219;28;19944;-72
2022/09/03 11:07:05;;;;;;;;;;;24.20;72.30;;;;;;5062352;28;19913;-71
2022/09/03 11:09:45;;;;;;;;;;;24.20;73.90;;;;;;5061354;28;19967;-71
2022/09/03 11:12:36;;;;;;;;;;;24.40;71.80;;;;;;5061760;28;19908;-71
2022/09/03 11:15:04;;;;;;;;;;;24.50;71.00;;;;;;5047004;28;19998;-72
2022/09/03 11:17:36;;;;;;;;;;;24.60;72.70;;;;;;5078748;28;19916;-71
2022/09/03 11:20:19;;;;;;;;;;;24.70;72.30;;;;;;5062220;28;19908;-71
2022/09/03 11:22:45;;;;;;;;;;;24.80;71.70;;;;;;5062609;28;20384;-72
2022/09/03 11:25:12;;;;;;;;;;;24.80;70.40;;;;;;5044419;28;19913;-68
2022/09/03 11:27:41;;;;;;;;;;;24.90;72.90;;;;;;5044860;28;19920;-70
2022/09/03 11:30:09;;;;;;;;;;;25.00;72.30;;;;;;5062325;28;19909;-69
2022/09/03 11:32:49;;;;;;;;;;;25.00;72.30;;;;;;5044743;28;19916;-69
2022/09/03 11:35:22;;;;;;;;;;;24.90;75.00;;;;;;5061301;28;19909;-70
2022/09/03 11:37:59;;;;;;;;;;;25.00;74.90;;;;;;5062386;28;19991;-72
2022/09/03 11:40:35;;;;;;;;;;;25.10;75.00;;;;;;5062402;28;19913;-71
2022/09/03 11:43:22;;;;;;;;;;;25.10;74.50;;;;;;5047696;28;19909;-72
2022/09/03 11:45:49;;;;;;;;;;;25.30;74.60;;;;;;5066363;28;19991;-71
2022/09/03 11:48:54;;;;;;;;;;;25.50;74.80;;;;;;5065229;28;19913;-71
2022/09/03 11:51:19;;;;;;;;;;;25.70;70.30;;;;;;5051232;28;19915;-71
2022/09/03 11:54:03;;;;;;;;;;;25.70;69.30;;;;;;5065472;28;19938;-71
2022/09/03 11:56:30;;;;;;;;;;;25.60;71.70;;;;;;5061713;28;19972;-71
2022/09/03 11:59:25;;;;;;;;;;;25.70;71.60;;;;;;5028474;28;19913;-71
2022/09/03 12:02:01;;;;;;;;;;;26.00;74.40;;;;;;5049763;28;19984;-71
2022/09/03 12:04:42;;;;;;;;;;;26.40;71.30;;;;;;5044801;28;19959;-70
2022/09/03 12:07:30;;;;;;;;;;;26.60;70.30;;;;;;5045803;28;19940;-72
2022/09/03 12:10:00;;;;;;;;;;;27.00;72.00;;;;;;5029846;28;19916;-71
2022/09/03 12:12:47;;;;;;;;;;;27.50;67.40;;;;;;5045582;28;19948;-71
2022/09/03 12:15:37;;;;;;;;;;;28.00;68.40;;;;;;5045848;28;20024;-70
2022/09/03 12:18:18;;;;;;;;;;;28.60;65.60;;;;;;5045670;28;19943;-70
2022/09/03 12:20:45;;;;;;;;;;;29.20;62.40;;;;;;5045670;28;19945;-70
2022/09/03 12:23:24;;;;;;;;;;;29.80;62.00;;;;;;5044183;28;20243;-70
2022/09/03 12:25:51;;;;;;;;;;;30.20;59.70;;;;;;5061960;28;19952;-71
2022/09/03 12:28:22;;;;;;;;;;;30.50;60.00;;;;;;5064285;28;20273;-72
2022/09/03 12:30:52;;;;;;;;;;;30.80;55.30;;;;;;5064448;28;19909;-70
2022/09/03 12:33:20;;;;;;;;;;;30.50;57.10;;;;;;5064081;28;19978;-70
2022/09/03 12:35:56;;;;;;;;;;;29.90;57.70;;;;;;5064616;28;19924;-70
2022/09/03 12:38:31;;;;;;;;;;;29.50;59.60;;;;;;5067331;28;20104;-70
2022/09/03 12:40:57;;;;;;;;;;;29.40;59.50;;;;;;5067042;28;19924;-70
2022/09/03 12:43:26;;;;;;;;;;;29.80;58.70;;;;;;5064181;28;19908;-70
2022/09/03 12:45:53;;;;;;;;;;;29.90;58.20;;;;;;5064992;28;19912;-70
2022/09/03 12:48:19;;;;;;;;;;;30.30;56.90;;;;;;5064087;28;19979;-69
2022/09/03 12:50:45;;;;;;;;;;;29.90;62.20;;;;;;5065914;28;19936;-69
2022/09/03 12:53:20;;;;;;;;;;;29.80;58.60;;;;;;5063677;28;20151;-69
2022/09/03 12:55:47;;;;;;;;;;;29.40;59.30;;;;;;5046203;28;19916;-69
2022/09/03 12:58:24;;;;;;;;;;;28.90;61.60;;;;;;5063630;28;19952;-69
2022/09/03 13:00:53;;;;;;;;;;;28.50;61.70;;;;;;5063752;28;19940;-70
2022/09/03 13:03:21;;;;;;;;;;;27.90;64.50;;;;;;5063340;28;19909;-70
2022/09/03 13:05:51;;;;;;;;;;;27.30;66.10;;;;;;5063504;28;20089;-69
2022/09/03 13:08:21;;;;;;;;;;;26.90;68.20;;;;;;5064581;28;19924;-70
2022/09/03 13:10:54;;;;;;;;;;;26.50;70.80;;;;;;5063392;28;20346;-70
2022/09/03 13:13:29;;;;;;;;;;;26.10;72.50;;;;;;5063375;28;20150;-68
2022/09/03 13:16:32;;;;;;;;;;;25.80;74.40;;;;;;5063284;28;20196;-70
2022/09/03 13:19:00;;;;;;;;;;;25.40;76.60;;;;;;5064481;28;20234;-71
2022/09/03 13:21:26;;;;;;;;;;;25.10;79.40;;;;;;5064406;28;19956;-72
2022/09/03 13:24:13;;;;;;;;;;;24.90;78.70;;;;;;5063876;28;19913;-72
2022/09/03 13:26:48;;;;;;;;;;;24.60;82.60;;;;;;5063059;28;19913;-72
2022/09/03 13:29:29;;;;;;;;;;;24.50;84.50;;;;;;5063621;28;19908;-72
2022/09/03 13:32:06;;;;;;;;;;;24.40;84.00;;;;;;5062973;28;19958;-72
2022/09/03 13:34:36;;;;;;;;;;;24.30;85.40;;;;;;5062704;28;19916;-72
2022/09/03 13:37:30;;;;;;;;;;;24.10;86.50;;;;;;5046598;28;19954;-72
2022/09/03 13:40:05;;;;;;;;;;;24.00;86.40;;;;;;5063940;28;19917;-73
2022/09/03 13:42:39;;;;;;;;;;;23.90;87.60;;;;;;5062901;28;19940;-74
2022/09/03 13:45:23;;;;;;;;;;;23.90;88.00;;;;;;5046237;28;20004;-73
2022/09/03 13:50:43;;;;;;;;;;;23.90;87.70;;;;;;5062855;28;20116;-72
2022/09/03 13:53:17;;;;;;;;;;;23.90;88.20;;;;;;5062280;28;19909;-72
2022/09/03 13:55:51;;;;;;;;;;;24.10;88.60;;;;;;5057253;28;19909;-75
2022/09/03 13:58:30;;;;;;;;;;;24.30;89.40;;;;;;5042499;28;19971;-72
2022/09/03 14:01:33;;;;;;;;;;;24.60;85.00;;;;;;5026275;28;19992;-72
2022/09/03 14:04:00;;;;;;;;;;;24.90;88.00;;;;;;5043433;28;19909;-71
2022/09/03 14:06:39;;;;;;;;;;;25.00;83.70;;;;;;5025306;28;19951;-72
2022/09/03 14:09:32;;;;;;;;;;;25.00;83.40;;;;;;5042635;28;19971;-71
2022/09/03 14:12:08;;;;;;;;;;;25.00;88.20;;;;;;5042616;28;19909;-71
2022/09/03 14:14:39;;;;;;;;;;;24.90;88.40;;;;;;5042163;28;19909;-72
2022/09/03 14:17:18;;;;;;;;;;;24.80;93.90;;;;;;5042370;28;19941;-71
2022/09/03 14:19:57;;;;;;;;;;;24.80;87.30;;;;;;5026140;28;19985;-71
2022/09/03 14:22:33;;;;;;;;;;;24.70;87.30;;;;;;5042266;28;19909;-72
2022/09/03 14:25:02;;;;;;;;;;;24.70;90.10;;;;;;5046464;28;20228;-71
2022/09/03 14:27:31;;;;;;;;;;;24.60;86.10;;;;;;5025576;28;19979;-71
2022/09/03 14:30:17;;;;;;;;;;;24.50;85.90;;;;;;5026110;28;19924;-72
2022/09/03 14:32:48;;;;;;;;;;;24.30;90.00;;;;;;5043094;28;19916;-72
2022/09/03 14:35:39;;;;;;;;;;;24.20;89.70;;;;;;5043091;28;19909;-77
2022/09/03 14:38:22;;;;;;;;;;;24.20;90.00;;;;;;5041658;28;19920;-74
2022/09/03 14:40:56;;;;;;;;;;;24.00;91.80;;;;;;5041837;28;19911;-74
2022/09/03 14:43:40;;;;;;;;;;;23.90;91.20;;;;;;5026058;28;19909;-73
2022/09/03 14:46:09;;;;;;;;;;;23.90;90.70;;;;;;5042914;28;20208;-74
2022/09/03 14:48:53;;;;;;;;;;;23.80;91.40;;;;;;5042842;28;19916;-74